createdAt,value
2022-11-18T00:01:38.904Z,24.52
2022-11-18T00:06:25.918Z,16.73
2022-11-18T00:11:33.576Z,15.68
2022-11-18T00:16:21.738Z,16.45
2022-11-18T00:21:08.334Z,15.90
2022-11-18T00:25:53.685Z,14.65
2022-11-18T00:30:38.673Z,20.92
2022-11-18T00:35:28.306Z,12.70
2022-11-18T00:40:14.770Z,20.15
2022-11-18T00:45:00.110Z,19.60
2022-11-18T00:49:45.135Z,19.95
2022-11-18T00:54:33.043Z,15.40
2022-11-18T00:59:18.293Z,19.35
2022-11-18T01:04:04.984Z,20.10
2022-11-18T01:08:50.250Z,11.90
2022-11-18T01:13:38.117Z,18.33
2022-11-18T01:18:25.756Z,23.25
2022-11-18T01:23:11.065Z,18.27
2022-11-18T01:27:56.291Z,15.38
2022-11-18T01:32:44.190Z,16.98
2022-11-18T01:37:29.183Z,15.23
2022-11-18T01:42:17.769Z,26.13
2022-11-18T01:47:02.805Z,8.50
2022-11-18T01:51:54.358Z,6.40
2022-11-18T01:56:45.155Z,7.80
2022-11-18T02:01:30.614Z,3.05
2022-11-18T02:06:17.020Z,9.82
2022-11-18T02:11:05.009Z,9.02
2022-11-18T02:15:59.805Z,8.68
2022-11-18T02:20:47.209Z,7.07
2022-11-18T02:25:43.126Z,7.93
2022-11-18T02:30:35.268Z,12.45
2022-11-18T02:35:28.543Z,14.57
2022-11-18T02:40:17.953Z,15.50
2022-11-18T02:45:09.036Z,18.75
2022-11-18T02:50:00.953Z,14.50
2022-11-18T02:54:50.326Z,12.75
2022-11-18T02:59:35.753Z,16.52
2022-11-18T03:04:21.976Z,11.30
2022-11-18T03:09:17.261Z,20.60
2022-11-18T03:14:17.534Z,25.80
2022-11-18T03:19:10.442Z,21.63
2022-11-18T03:24:02.617Z,16.48
2022-11-18T03:28:56.521Z,16.30
2022-11-18T03:33:46.441Z,15.05
2022-11-18T03:38:36.959Z,13.63
2022-11-18T03:43:26.958Z,8.57
2022-11-18T03:48:18.994Z,13.43
2022-11-18T03:53:06.032Z,15.63
2022-11-18T03:57:57.564Z,10.43
2022-11-18T04:02:43.235Z,13.80
2022-11-18T04:07:36.137Z,14.30
2022-11-18T04:12:24.254Z,13.82
2022-11-18T04:17:12.313Z,11.10
2022-11-18T04:21:57.369Z,7.45
2022-11-18T04:26:45.246Z,12.82
2022-11-18T04:31:30.358Z,7.88
2022-11-18T04:36:15.689Z,14.70
2022-11-18T04:41:00.866Z,14.27
2022-11-18T04:45:48.790Z,12.60
2022-11-18T04:50:33.815Z,11.40
2022-11-18T04:55:20.604Z,10.77
2022-11-18T05:00:05.960Z,8.48
2022-11-18T05:04:54.422Z,11.82
2022-11-18T05:09:39.454Z,9.63
2022-11-18T05:14:24.839Z,10.55
2022-11-18T05:19:10.124Z,12.40
2022-11-18T05:23:58.033Z,13.88
2022-11-18T05:28:43.129Z,15.18
2022-11-18T05:33:28.718Z,7.13
2022-11-18T05:38:13.853Z,8.88
2022-11-18T05:43:16.773Z,10.45
2022-11-18T05:48:05.002Z,7.85
2022-11-18T05:52:50.084Z,5.53
2022-11-18T05:57:35.359Z,16.17
2022-11-18T06:02:26.832Z,15.60
2022-11-18T06:07:16.884Z,17.50
2022-11-18T06:12:04.689Z,18.70
2022-11-18T06:16:54.893Z,17.67
2022-11-18T06:21:42.798Z,24.15
2022-11-18T06:26:28.132Z,17.20
2022-11-18T06:31:13.430Z,11.93
2022-11-18T06:35:58.482Z,13.13
2022-11-18T06:40:46.372Z,11.15
2022-11-18T06:45:31.410Z,11.32
2022-11-18T06:50:17.054Z,13.73
2022-11-18T06:55:02.312Z,17.50
2022-11-18T06:59:50.020Z,31.85
2022-11-18T07:04:39.628Z,10.15
2022-11-18T07:09:24.854Z,11.75
2022-11-18T07:14:10.202Z,17.73
2022-11-18T07:18:58.954Z,16.77
2022-11-18T07:23:44.587Z,17.77
2022-11-18T07:28:30.807Z,13.35
2022-11-18T07:33:16.050Z,17.13
2022-11-18T07:38:03.644Z,18.02
2022-11-18T07:42:48.943Z,42.75
2022-11-18T07:47:37.098Z,44.58
2022-11-18T07:52:22.565Z,28.92
2022-11-18T07:57:10.492Z,36.67
2022-11-18T08:01:55.577Z,22.20
2022-11-18T08:06:41.591Z,21.42
2022-11-18T08:11:26.685Z,28.98
2022-11-18T08:16:19.742Z,27.05
2022-11-18T08:21:06.468Z,28.15
2022-11-18T08:25:51.762Z,27.73
2022-11-18T08:30:38.037Z,45.88
2022-11-18T08:35:25.675Z,32.78
2022-11-18T08:40:12.343Z,23.08
2022-11-18T08:44:57.680Z,30.35
2022-11-18T08:49:42.985Z,18.30
2022-11-18T08:54:31.774Z,37.03
2022-11-18T08:59:17.387Z,18.60
2022-11-18T09:04:02.529Z,20.25
2022-11-18T09:08:48.156Z,20.58
2022-11-18T09:18:41.081Z,21.13
2022-11-18T09:23:26.140Z,22.38
2022-11-18T09:28:11.490Z,33.08
2022-11-18T09:32:59.917Z,23.00
2022-11-18T09:37:45.257Z,55.67
2022-11-18T09:42:44.297Z,32.25
2022-11-18T09:47:31.756Z,16.90
2022-11-18T09:52:24.233Z,23.58
2022-11-18T09:57:17.484Z,26.65
2022-11-18T10:02:18.405Z,25.77
2022-11-18T10:07:09.710Z,13.73
2022-11-18T10:12:14.654Z,22.80
2022-11-18T10:17:07.738Z,30.10
2022-11-18T10:22:03.589Z,24.65
2022-11-18T10:26:49.255Z,12.73
2022-11-18T10:31:40.406Z,38.75
2022-11-18T10:36:30.921Z,19.40
2022-11-18T10:41:18.265Z,22.48
2022-11-18T10:46:19.492Z,17.35
2022-11-18T10:51:25.107Z,16.03
2022-11-18T10:56:16.128Z,23.30
2022-11-18T11:01:09.484Z,21.30
2022-11-18T11:06:25.875Z,27.90
2022-11-18T11:11:26.454Z,17.55
2022-11-18T11:16:25.988Z,14.95
2022-11-18T11:21:15.408Z,23.25
2022-11-18T11:31:20.956Z,15.02
2022-11-18T11:36:33.775Z,20.17
2022-11-18T11:41:26.407Z,23.33
2022-11-18T11:46:29.858Z,17.38
2022-11-18T11:51:23.115Z,21.90
2022-11-18T11:56:22.620Z,12.60
2022-11-18T12:01:19.539Z,13.52
2022-11-18T12:06:04.814Z,22.50
2022-11-18T12:10:53.598Z,23.02
2022-11-18T12:15:47.878Z,20.23
2022-11-18T12:20:47.308Z,19.20
2022-11-18T12:25:55.754Z,18.20
2022-11-18T12:30:41.109Z,20.00
2022-11-18T12:35:30.319Z,15.82
2022-11-18T12:40:52.711Z,16.20
2022-11-18T12:45:59.137Z,17.20
2022-11-18T12:50:52.807Z,14.00
2022-11-18T12:55:41.647Z,14.55
2022-11-18T13:00:52.877Z,16.58
2022-11-18T13:05:38.815Z,22.83
2022-11-18T13:10:29.034Z,17.65
2022-11-18T13:15:27.993Z,19.75
2022-11-18T13:20:31.495Z,15.32
2022-11-18T13:25:27.574Z,17.38
2022-11-18T13:30:15.242Z,16.77
2022-11-18T13:35:06.002Z,16.58
2022-11-18T13:39:54.207Z,22.67
2022-11-18T13:44:40.965Z,14.13
2022-11-18T13:49:39.954Z,17.70
2022-11-18T13:54:29.833Z,19.17
2022-11-18T13:59:22.862Z,11.25
2022-11-18T14:04:10.516Z,13.52
2022-11-18T14:09:08.911Z,13.00
2022-11-18T14:13:57.807Z,15.40
2022-11-18T14:18:49.189Z,17.40
2022-11-18T14:23:36.624Z,15.60
2022-11-18T14:28:26.238Z,17.77
2022-11-18T14:33:20.704Z,17.20
2022-11-18T14:43:20.030Z,12.45
2022-11-18T14:48:05.215Z,15.88
2022-11-18T14:52:50.511Z,12.95
2022-11-18T14:57:38.375Z,16.63
2022-11-18T15:02:23.548Z,14.68
2022-11-18T15:07:08.910Z,11.00
2022-11-18T15:11:53.912Z,15.07
2022-11-18T15:16:41.812Z,19.73
2022-11-18T15:21:27.904Z,19.35
2022-11-18T15:26:22.895Z,20.67
2022-11-18T15:31:08.266Z,17.40
2022-11-18T15:35:56.180Z,15.68
2022-11-18T15:40:41.246Z,23.40
2022-11-18T15:45:26.527Z,27.95
2022-11-18T15:50:12.951Z,23.23
2022-11-18T15:55:03.046Z,21.55
2022-11-18T15:59:49.024Z,15.77
2022-11-18T16:04:34.338Z,21.50
2022-11-18T16:09:20.122Z,25.92
2022-11-18T16:14:09.369Z,23.40
2022-11-18T16:18:57.066Z,13.63
2022-11-18T16:23:42.463Z,12.80
2022-11-18T16:28:27.447Z,12.55
2022-11-18T16:33:15.387Z,26.13
2022-11-18T16:38:00.501Z,22.27
2022-11-18T16:42:45.764Z,14.95
2022-11-18T16:47:30.779Z,15.98
2022-11-18T16:52:18.690Z,18.48
2022-11-18T16:57:03.942Z,18.77
2022-11-18T17:01:49.018Z,20.73
2022-11-18T17:06:34.951Z,18.95
2022-11-18T17:11:22.956Z,17.25
2022-11-18T17:16:10.011Z,25.05
2022-11-18T17:20:55.004Z,25.75
2022-11-18T17:25:40.280Z,25.35
2022-11-18T17:30:28.479Z,39.90
2022-11-18T17:35:13.479Z,45.03
2022-11-18T17:39:58.793Z,45.65
2022-11-18T17:44:43.864Z,41.20
2022-11-18T17:49:31.776Z,27.98
2022-11-18T17:54:17.731Z,44.45
2022-11-18T17:59:03.326Z,21.88
2022-11-18T18:03:48.340Z,25.23
2022-11-18T18:08:36.396Z,23.92
2022-11-18T18:13:33.970Z,20.13
2022-11-18T18:18:19.292Z,9.88
2022-11-18T18:23:04.591Z,15.43
2022-11-18T18:27:52.389Z,9.25
2022-11-18T18:32:38.102Z,9.40
2022-11-18T18:37:23.123Z,13.07
2022-11-18T18:42:08.491Z,11.70
2022-11-18T18:46:56.082Z,22.50
2022-11-18T18:51:43.008Z,14.90
2022-11-18T18:56:28.574Z,12.68
2022-11-18T19:01:15.666Z,31.52
2022-11-18T19:06:41.478Z,27.83
2022-11-18T19:11:09.403Z,16.85
2022-11-18T19:15:54.565Z,16.88
2022-11-18T19:20:39.880Z,16.92
2022-11-18T19:25:27.817Z,22.98
2022-11-18T19:30:14.654Z,18.50
2022-11-18T19:34:59.894Z,22.98
2022-11-18T19:39:44.959Z,25.33
2022-11-18T19:44:32.883Z,24.85
2022-11-18T19:49:18.354Z,23.90
2022-11-18T19:54:03.979Z,17.10
2022-11-18T19:58:50.381Z,19.45
2022-11-18T20:03:41.603Z,22.27
2022-11-18T20:08:28.071Z,22.90
2022-11-18T20:13:13.395Z,22.98
2022-11-18T20:17:58.367Z,24.92
2022-11-18T20:22:46.432Z,27.15
2022-11-18T20:27:31.483Z,35.08
2022-11-18T20:32:18.412Z,26.35
2022-11-18T20:37:03.478Z,21.90
2022-11-18T20:42:06.272Z,23.95
2022-11-18T20:46:51.667Z,19.00
2022-11-18T20:51:36.731Z,9.13
2022-11-18T20:56:24.011Z,8.98
2022-11-18T21:01:17.149Z,9.15
2022-11-18T21:06:13.858Z,7.75
2022-11-18T21:11:03.504Z,11.15
2022-11-18T21:15:48.879Z,8.77
2022-11-18T21:20:48.806Z,7.47
2022-11-18T21:25:34.084Z,5.47
2022-11-18T21:30:19.776Z,11.90
2022-11-18T21:35:05.275Z,4.72
2022-11-18T21:39:52.960Z,9.05
2022-11-18T21:44:38.256Z,4.72
2022-11-18T21:49:23.509Z,8.75
2022-11-18T21:54:09.397Z,4.15
2022-11-18T21:58:59.389Z,4.95
2022-11-18T22:03:50.904Z,5.95
2022-11-18T22:08:41.452Z,7.13
2022-11-18T22:13:27.973Z,4.90
2022-11-18T22:18:15.587Z,13.07
2022-11-18T22:23:00.885Z,7.18
2022-11-18T22:27:45.911Z,12.20
2022-11-18T22:32:31.656Z,8.65
2022-11-18T22:37:19.312Z,7.13
2022-11-18T22:42:16.923Z,16.75
2022-11-18T22:47:01.937Z,6.95
2022-11-18T22:51:47.248Z,5.60
2022-11-18T22:56:35.087Z,7.93
2022-11-18T23:01:22.732Z,7.13
2022-11-18T23:06:08.579Z,6.13
2022-11-18T23:10:53.616Z,3.85
2022-11-18T23:15:41.612Z,4.10
2022-11-18T23:20:26.671Z,4.57
2022-11-18T23:25:12.146Z,2.78
2022-11-18T23:29:57.851Z,3.80
2022-11-18T23:34:45.743Z,22.13
2022-11-18T23:39:30.811Z,10.93
2022-11-18T23:44:16.094Z,10.93
2022-11-18T23:49:01.480Z,11.07
2022-11-18T23:53:50.851Z,5.25
2022-11-18T23:58:36.056Z,10.15
